createdAt,value
2023-03-16T00:02:20.024Z,3.50
2023-03-16T00:04:48.612Z,3.60
2023-03-16T00:07:17.117Z,6.30
2023-03-16T00:09:45.420Z,4.20
2023-03-16T00:12:19.591Z,4.20
2023-03-16T00:14:49.669Z,2.90
2023-03-16T00:17:20.776Z,3.30
2023-03-16T00:19:55.774Z,3.00
2023-03-16T00:22:29.531Z,1.70
2023-03-16T00:24:58.559Z,3.30
2023-03-16T00:27:27.790Z,3.30
2023-03-16T00:29:56.578Z,2.30
2023-03-16T00:32:32.093Z,1.50
2023-03-16T00:35:02.377Z,2.50
2023-03-16T00:37:33.032Z,3.30
2023-03-16T00:40:01.528Z,2.50
2023-03-16T00:42:31.541Z,1.80
2023-03-16T00:45:01.996Z,3.20
2023-03-16T00:47:32.958Z,3.20
2023-03-16T00:50:02.447Z,3.60
2023-03-16T00:52:30.834Z,3.20
2023-03-16T00:54:59.314Z,3.20
2023-03-16T00:57:30.270Z,3.40
2023-03-16T00:59:59.724Z,2.70
2023-03-16T01:02:28.361Z,3.00
2023-03-16T01:04:56.900Z,2.50
2023-03-16T01:07:27.032Z,1.30
2023-03-16T01:09:55.198Z,3.60
2023-03-16T01:12:23.510Z,2.20
2023-03-16T01:14:51.790Z,4.30
2023-03-16T01:17:20.308Z,2.70
2023-03-16T01:19:51.661Z,2.40
2023-03-16T01:22:20.136Z,3.00
2023-03-16T01:24:48.321Z,1.70
2023-03-16T01:27:16.450Z,4.00
2023-03-16T01:29:44.752Z,2.40
2023-03-16T01:32:13.713Z,2.90
2023-03-16T01:34:42.463Z,2.10
2023-03-16T01:37:13.042Z,2.80
2023-03-16T01:39:56.328Z,1.60
2023-03-16T01:42:24.562Z,1.50
2023-03-16T01:45:02.224Z,0.90
2023-03-16T01:47:39.253Z,2.80
2023-03-16T01:50:13.572Z,1.30
2023-03-16T01:52:43.319Z,3.10
2023-03-16T01:55:16.056Z,1.40
2023-03-16T01:57:46.748Z,1.00
2023-03-16T02:00:23.793Z,1.60
2023-03-16T02:03:18.253Z,1.80
2023-03-16T02:06:15.400Z,2.10
2023-03-16T02:08:49.286Z,1.20
2023-03-16T02:11:18.242Z,1.10
2023-03-16T02:14:15.731Z,1.40
2023-03-16T02:16:45.306Z,1.00
2023-03-16T02:19:27.601Z,1.80
2023-03-16T02:22:08.242Z,1.60
2023-03-16T02:24:38.305Z,2.40
2023-03-16T02:27:12.171Z,2.00
2023-03-16T02:30:04.991Z,1.30
2023-03-16T02:32:39.702Z,4.00
2023-03-16T02:35:09.538Z,4.70
2023-03-16T02:37:37.768Z,9.10
2023-03-16T02:40:22.545Z,8.70
2023-03-16T02:43:13.650Z,8.00
2023-03-16T02:45:58.686Z,8.40
2023-03-16T02:48:42.929Z,3.90
2023-03-16T02:51:11.795Z,4.10
2023-03-16T02:53:40.148Z,3.90
2023-03-16T02:56:08.979Z,4.30
2023-03-16T02:58:37.972Z,5.30
2023-03-16T03:01:10.103Z,2.70
2023-03-16T03:03:38.531Z,1.50
2023-03-16T03:06:07.091Z,2.90
2023-03-16T03:08:37.397Z,2.10
2023-03-16T03:11:05.937Z,4.40
2023-03-16T03:13:34.138Z,3.70
2023-03-16T03:16:02.504Z,3.40
2023-03-16T03:18:30.979Z,3.40
2023-03-16T03:20:59.158Z,5.70
2023-03-16T03:23:27.409Z,3.50
2023-03-16T03:25:59.931Z,1.80
2023-03-16T03:28:29.402Z,2.40
2023-03-16T03:30:57.840Z,2.90
2023-03-16T03:33:26.267Z,3.90
2023-03-16T03:35:59.052Z,3.60
2023-03-16T03:38:28.726Z,4.70
2023-03-16T03:41:00.334Z,4.40
2023-03-16T03:43:31.034Z,5.40
2023-03-16T03:46:01.111Z,4.80
2023-03-16T03:48:29.762Z,5.00
2023-03-16T03:50:58.190Z,5.20
2023-03-16T03:53:49.511Z,7.00
2023-03-16T03:56:17.756Z,9.00
2023-03-16T03:58:46.102Z,10.60
2023-03-16T04:01:18.043Z,8.90
2023-03-16T04:03:46.258Z,10.20
2023-03-16T04:06:15.224Z,11.10
2023-03-16T04:08:44.170Z,9.80
2023-03-16T04:11:15.939Z,5.50
2023-03-16T04:13:44.408Z,5.50
2023-03-16T04:16:16.325Z,7.00
2023-03-16T04:18:46.386Z,6.90
2023-03-16T04:21:17.211Z,3.70
2023-03-16T04:23:48.316Z,4.40
2023-03-16T04:26:16.924Z,7.30
2023-03-16T04:28:47.261Z,6.90
2023-03-16T04:31:16.709Z,10.80
2023-03-16T04:33:46.609Z,5.50
2023-03-16T04:36:14.949Z,10.30
2023-03-16T04:38:44.482Z,7.60
2023-03-16T04:41:13.109Z,10.30
2023-03-16T04:43:46.807Z,10.90
2023-03-16T04:46:19.641Z,13.40
2023-03-16T04:48:48.165Z,12.70
2023-03-16T04:51:16.393Z,19.00
2023-03-16T04:53:51.633Z,16.90
2023-03-16T04:56:26.663Z,18.10
2023-03-16T04:58:58.647Z,19.80
2023-03-16T05:01:29.251Z,26.00
2023-03-16T05:03:59.887Z,29.90
2023-03-16T05:06:29.202Z,21.90
2023-03-16T05:09:00.936Z,21.90
2023-03-16T05:11:30.280Z,17.20
2023-03-16T05:13:59.992Z,19.20
2023-03-16T05:16:29.491Z,14.30
2023-03-16T05:18:59.735Z,15.10
2023-03-16T05:21:32.243Z,11.80
2023-03-16T05:24:05.859Z,9.40
2023-03-16T05:26:34.428Z,8.20
2023-03-16T05:29:03.652Z,10.90
2023-03-16T05:31:36.397Z,16.20
2023-03-16T05:34:09.514Z,13.80
2023-03-16T05:36:37.662Z,10.50
2023-03-16T05:39:09.254Z,14.00
2023-03-16T05:41:40.443Z,11.20
2023-03-16T05:44:29.133Z,16.40
2023-03-16T05:47:10.050Z,18.40
2023-03-16T05:49:41.593Z,12.00
2023-03-16T05:52:16.219Z,16.50
2023-03-16T05:55:39.743Z,12.70
2023-03-16T05:58:46.451Z,9.40
2023-03-16T06:01:37.456Z,10.10
2023-03-16T06:04:07.733Z,9.20
2023-03-16T06:06:40.361Z,15.60
2023-03-16T06:09:44.624Z,25.00
2023-03-16T06:12:25.825Z,12.50
2023-03-16T06:14:54.040Z,12.50
2023-03-16T06:17:22.508Z,17.10
2023-03-16T06:19:51.535Z,18.50
2023-03-16T06:22:25.171Z,16.30
2023-03-16T06:24:53.979Z,13.40
2023-03-16T06:27:22.267Z,12.70
2023-03-16T06:30:01.641Z,9.40
2023-03-16T06:32:31.861Z,11.00
2023-03-16T06:35:03.500Z,13.00
2023-03-16T06:37:32.509Z,13.40
2023-03-16T06:40:02.299Z,11.80
2023-03-16T06:42:34.120Z,32.70
2023-03-16T06:45:11.709Z,38.00
2023-03-16T06:47:52.284Z,13.10
2023-03-16T06:50:26.850Z,7.70
2023-03-16T06:53:02.804Z,12.10
2023-03-16T06:55:33.234Z,13.50
2023-03-16T07:01:36.235Z,22.80
2023-03-16T07:04:09.608Z,10.80
2023-03-16T07:06:41.704Z,14.80
2023-03-16T07:09:14.259Z,13.90
2023-03-16T07:11:45.291Z,13.40
2023-03-16T07:14:14.553Z,10.40
2023-03-16T07:16:43.556Z,10.80
2023-03-16T07:19:12.874Z,7.10
2023-03-16T07:21:44.171Z,9.10
2023-03-16T07:24:16.094Z,8.50
2023-03-16T07:26:50.370Z,13.30
2023-03-16T07:29:25.745Z,7.40
2023-03-16T07:31:56.144Z,8.60
2023-03-16T07:34:30.320Z,9.70
2023-03-16T07:36:59.963Z,8.80
2023-03-16T07:39:31.940Z,7.40
2023-03-16T07:42:08.972Z,7.20
2023-03-16T07:44:55.254Z,12.50
2023-03-16T07:47:35.071Z,12.70
2023-03-16T07:50:13.806Z,12.70
2023-03-16T07:52:54.887Z,17.60
2023-03-16T07:55:37.531Z,15.70
2023-03-16T07:58:08.088Z,17.90
2023-03-16T08:00:37.716Z,25.50
2023-03-16T08:03:06.533Z,13.90
2023-03-16T08:05:39.839Z,23.60
2023-03-16T08:08:16.195Z,12.10
2023-03-16T08:10:47.732Z,8.60
2023-03-16T08:13:20.741Z,6.60
2023-03-16T08:16:02.188Z,8.70
2023-03-16T08:18:42.709Z,16.20
2023-03-16T08:21:11.933Z,11.70
2023-03-16T08:23:40.237Z,10.50
2023-03-16T08:26:09.157Z,10.80
2023-03-16T08:28:38.617Z,10.30
2023-03-16T08:31:11.159Z,11.60
2023-03-16T08:33:45.567Z,11.50
2023-03-16T08:36:17.364Z,10.40
2023-03-16T08:39:05.624Z,7.30
2023-03-16T08:41:35.160Z,41.40
2023-03-16T08:44:11.438Z,15.00
2023-03-16T08:46:40.950Z,14.00
2023-03-16T08:49:10.195Z,7.10
2023-03-16T08:51:39.373Z,5.70
2023-03-16T08:54:08.008Z,7.30
2023-03-16T08:56:36.956Z,8.40
2023-03-16T08:59:05.850Z,8.30
2023-03-16T09:01:34.891Z,7.90
2023-03-16T09:04:03.565Z,6.60
2023-03-16T09:06:38.630Z,6.10
2023-03-16T09:09:09.640Z,10.80
2023-03-16T09:11:40.549Z,9.10
2023-03-16T09:14:18.712Z,7.10
2023-03-16T09:16:47.231Z,10.10
2023-03-16T09:19:15.836Z,12.40
2023-03-16T09:21:45.968Z,6.70
2023-03-16T09:24:15.801Z,5.60
2023-03-16T09:26:44.303Z,8.20
2023-03-16T09:29:15.947Z,8.00
2023-03-16T09:31:45.038Z,8.80
2023-03-16T09:34:13.968Z,9.20
2023-03-16T09:36:42.846Z,8.20
2023-03-16T09:39:14.522Z,7.00
2023-03-16T09:41:54.442Z,8.10
2023-03-16T09:44:42.896Z,8.30
2023-03-16T09:47:15.267Z,7.50
2023-03-16T09:49:48.645Z,6.70
2023-03-16T09:52:34.328Z,6.30
2023-03-16T09:55:24.904Z,8.20
2023-03-16T09:57:54.389Z,8.20
2023-03-16T10:00:27.705Z,9.70
2023-03-16T10:03:40.580Z,9.60
2023-03-16T10:06:13.890Z,11.10
2023-03-16T10:09:22.743Z,8.10
2023-03-16T10:11:55.117Z,24.40
2023-03-16T10:14:45.372Z,9.10
2023-03-16T10:17:26.685Z,26.80
2023-03-16T10:20:01.555Z,9.70
2023-03-16T10:22:35.007Z,9.70
2023-03-16T10:25:20.189Z,12.90
2023-03-16T10:27:49.282Z,7.90
2023-03-16T10:30:28.797Z,9.20
2023-03-16T10:33:01.960Z,8.30
2023-03-16T10:35:52.347Z,9.60
2023-03-16T10:38:33.197Z,10.90
2023-03-16T10:41:02.287Z,10.50
2023-03-16T10:43:32.301Z,8.30
2023-03-16T10:46:03.996Z,10.60
2023-03-16T10:48:34.983Z,17.00
2023-03-16T10:51:15.105Z,20.30
2023-03-16T10:53:44.892Z,13.30
2023-03-16T10:56:21.086Z,16.20
2023-03-16T10:58:49.789Z,15.60
2023-03-16T11:01:29.122Z,10.00
2023-03-16T11:03:59.091Z,9.70
2023-03-16T11:06:33.134Z,10.60
2023-03-16T11:09:19.689Z,11.00
2023-03-16T11:11:49.686Z,11.90
2023-03-16T11:14:28.590Z,10.60
2023-03-16T11:17:16.376Z,11.70
2023-03-16T11:19:57.809Z,7.80
2023-03-16T11:22:27.651Z,9.10
2023-03-16T11:25:17.423Z,12.70
2023-03-16T11:27:54.341Z,10.10
2023-03-16T11:30:40.032Z,11.40
2023-03-16T11:33:16.817Z,15.20
2023-03-16T11:36:07.585Z,12.30
2023-03-16T11:38:55.108Z,21.80
2023-03-16T11:42:04.125Z,17.70
2023-03-16T11:44:55.652Z,11.40
2023-03-16T11:47:59.920Z,13.10
2023-03-16T11:50:56.592Z,14.90
2023-03-16T11:53:24.909Z,9.90
2023-03-16T11:56:19.252Z,11.50
2023-03-16T11:59:15.849Z,11.70
2023-03-16T12:02:01.134Z,10.70
2023-03-16T12:04:46.650Z,8.40
2023-03-16T12:07:26.090Z,9.30
2023-03-16T12:10:18.896Z,12.70
2023-03-16T12:13:30.727Z,14.10
2023-03-16T12:16:15.405Z,13.20
2023-03-16T12:19:00.366Z,9.10
2023-03-16T12:21:33.971Z,9.70
2023-03-16T12:24:12.376Z,14.20
2023-03-16T12:26:43.098Z,11.80
2023-03-16T12:29:42.072Z,14.00
2023-03-16T12:32:22.785Z,14.70
2023-03-16T12:35:16.843Z,12.50
2023-03-16T12:37:45.116Z,12.60
2023-03-16T12:40:16.342Z,18.00
2023-03-16T12:43:02.882Z,11.70
2023-03-16T12:45:48.315Z,13.20
2023-03-16T12:48:31.655Z,12.80
2023-03-16T12:51:03.295Z,11.00
2023-03-16T12:53:54.982Z,10.90
2023-03-16T12:56:31.666Z,12.90
2023-03-16T12:59:10.258Z,11.60
2023-03-16T13:01:43.833Z,14.20
2023-03-16T13:04:22.105Z,14.30
2023-03-16T13:07:02.152Z,14.30
2023-03-16T13:09:32.710Z,19.00
2023-03-16T13:12:05.211Z,19.70
2023-03-16T13:14:35.670Z,17.80
2023-03-16T13:17:06.630Z,20.80
2023-03-16T13:19:38.077Z,17.00
2023-03-16T13:22:28.159Z,21.20
2023-03-16T13:25:15.616Z,39.40
2023-03-16T13:27:48.027Z,26.70
2023-03-16T13:30:20.994Z,16.30
2023-03-16T13:32:54.765Z,14.40
2023-03-16T13:35:28.169Z,14.00
2023-03-16T13:38:06.032Z,16.60
2023-03-16T13:40:35.860Z,18.90
2023-03-16T13:43:04.197Z,20.30
2023-03-16T13:45:38.055Z,12.20
2023-03-16T13:48:06.412Z,14.70
2023-03-16T13:50:36.448Z,19.50
2023-03-16T13:53:15.078Z,17.00
2023-03-16T13:55:47.048Z,13.30
2023-03-16T13:58:22.793Z,13.80
2023-03-16T14:00:56.946Z,14.50
2023-03-16T14:03:38.596Z,13.70
2023-03-16T14:06:18.397Z,15.30
2023-03-16T14:08:51.076Z,20.50
2023-03-16T14:11:19.391Z,14.00
2023-03-16T14:13:54.410Z,14.40
2023-03-16T14:16:28.993Z,13.00
2023-03-16T14:19:04.704Z,15.00
2023-03-16T14:21:34.461Z,13.40
2023-03-16T14:24:17.062Z,17.20
2023-03-16T14:26:48.184Z,16.30
2023-03-16T14:29:22.907Z,16.10
2023-03-16T14:31:51.204Z,20.10
2023-03-16T14:34:35.353Z,17.30
2023-03-16T14:37:12.499Z,20.00
2023-03-16T14:39:41.212Z,22.10
2023-03-16T14:42:30.724Z,27.20
2023-03-16T14:45:01.033Z,25.80
2023-03-16T14:47:32.168Z,28.00
2023-03-16T14:50:08.317Z,26.50
2023-03-16T14:52:37.248Z,28.30
2023-03-16T14:55:15.159Z,25.50
2023-03-16T14:57:45.243Z,23.10
2023-03-16T15:00:15.799Z,19.30
2023-03-16T15:02:50.516Z,26.70
2023-03-16T15:05:28.851Z,29.60
2023-03-16T15:07:57.715Z,31.30
2023-03-16T15:10:30.291Z,31.00
2023-03-16T15:13:07.565Z,16.90
2023-03-16T15:15:36.092Z,20.50
2023-03-16T15:18:04.388Z,30.10
2023-03-16T15:20:39.138Z,28.30
2023-03-16T15:23:16.714Z,19.50
2023-03-16T15:25:46.763Z,17.80
2023-03-16T15:28:17.735Z,20.90
2023-03-16T15:30:48.543Z,28.40
2023-03-16T15:33:17.320Z,22.20
2023-03-16T15:35:48.127Z,19.80
2023-03-16T15:38:44.935Z,16.70
2023-03-16T15:41:14.292Z,19.50
2023-03-16T15:43:45.152Z,21.30
2023-03-16T15:46:14.985Z,17.30
2023-03-16T15:48:44.528Z,18.90
2023-03-16T15:51:25.865Z,19.20
2023-03-16T15:54:03.696Z,14.70
2023-03-16T15:56:47.208Z,16.50
2023-03-16T15:59:23.603Z,20.70
2023-03-16T16:01:52.959Z,27.90
2023-03-16T16:04:23.734Z,22.20
2023-03-16T16:06:55.454Z,28.00
2023-03-16T16:09:24.237Z,32.70
2023-03-16T16:11:52.929Z,38.10
2023-03-16T16:14:25.277Z,41.10
2023-03-16T16:16:54.546Z,42.70
2023-03-16T16:19:24.540Z,33.00
2023-03-16T16:21:52.977Z,36.10
2023-03-16T16:24:21.221Z,39.00
2023-03-16T16:26:55.507Z,40.80
2023-03-16T16:29:28.063Z,42.70
2023-03-16T16:31:56.469Z,35.50
2023-03-16T16:34:25.764Z,30.10
2023-03-16T16:36:56.036Z,29.70
2023-03-16T16:39:24.896Z,26.40
2023-03-16T16:41:55.412Z,29.60
2023-03-16T16:44:27.703Z,29.60
2023-03-16T16:46:56.200Z,31.30
2023-03-16T16:49:28.512Z,28.00
2023-03-16T16:51:58.123Z,26.00
2023-03-16T16:54:29.720Z,30.40
2023-03-16T16:56:59.958Z,28.80
2023-03-16T16:59:38.181Z,39.20
2023-03-16T17:02:33.432Z,36.70
2023-03-16T17:05:01.627Z,29.60
2023-03-16T17:07:30.000Z,34.10
2023-03-16T17:09:58.235Z,41.50
2023-03-16T17:12:28.846Z,44.40
2023-03-16T17:14:57.173Z,35.80
2023-03-16T17:17:25.807Z,37.60
2023-03-16T17:19:54.100Z,31.90
2023-03-16T17:22:25.311Z,35.30
2023-03-16T17:24:55.250Z,27.10
2023-03-16T17:27:33.197Z,33.00
2023-03-16T17:30:04.097Z,33.70
2023-03-16T17:32:32.556Z,34.40
2023-03-16T17:35:00.972Z,43.10
2023-03-16T17:37:29.291Z,40.40
2023-03-16T17:39:58.025Z,42.90
2023-03-16T17:42:27.088Z,51.80
2023-03-16T17:44:56.391Z,58.60
2023-03-16T17:47:27.546Z,65.20
2023-03-16T17:49:57.248Z,60.50
2023-03-16T17:52:29.312Z,48.60
2023-03-16T17:54:58.011Z,51.60
2023-03-16T17:57:31.317Z,58.50
2023-03-16T18:00:01.322Z,55.60
2023-03-16T18:02:45.093Z,43.80
2023-03-16T18:05:22.793Z,35.90
2023-03-16T18:07:51.998Z,26.20
2023-03-16T18:10:25.368Z,26.00
2023-03-16T18:13:01.959Z,21.60
2023-03-16T18:15:33.223Z,22.40
2023-03-16T18:18:01.891Z,26.60
2023-03-16T18:20:35.278Z,25.30
2023-03-16T18:23:15.499Z,24.00
2023-03-16T18:25:44.315Z,28.60
2023-03-16T18:28:14.096Z,23.40
2023-03-16T18:30:45.814Z,23.10
2023-03-16T18:33:35.484Z,26.60
2023-03-16T18:36:15.825Z,29.50
2023-03-16T18:38:47.481Z,29.30
2023-03-16T18:41:19.996Z,29.00
2023-03-16T18:43:49.208Z,37.70
2023-03-16T18:46:31.112Z,44.70
2023-03-16T18:49:03.042Z,43.40
2023-03-16T18:51:32.246Z,58.30
2023-03-16T18:54:00.558Z,56.00
2023-03-16T18:56:29.264Z,56.60
2023-03-16T18:58:57.896Z,58.20
2023-03-16T19:01:31.208Z,55.50
2023-03-16T19:04:02.284Z,55.70
2023-03-16T19:06:34.112Z,47.70
2023-03-16T19:09:12.921Z,46.90
2023-03-16T19:11:44.305Z,48.60
2023-03-16T19:14:27.089Z,61.50
2023-03-16T19:16:55.629Z,63.50
2023-03-16T19:19:24.974Z,97.10
2023-03-16T19:21:56.568Z,63.90
2023-03-16T19:24:29.037Z,59.70
2023-03-16T19:26:58.178Z,90.10
2023-03-16T19:29:33.132Z,70.70
2023-03-16T19:32:01.945Z,74.90
2023-03-16T19:34:30.210Z,67.50
2023-03-16T19:36:58.548Z,46.80
2023-03-16T19:39:27.959Z,42.00
2023-03-16T19:41:59.145Z,54.10
2023-03-16T19:44:29.168Z,65.00
2023-03-16T19:47:00.714Z,49.60
2023-03-16T19:49:29.508Z,71.50
2023-03-16T19:51:57.991Z,52.40
2023-03-16T19:54:33.511Z,58.60
2023-03-16T19:57:08.205Z,56.30
2023-03-16T19:59:37.017Z,58.50
2023-03-16T20:02:24.261Z,64.30
2023-03-16T20:04:54.251Z,67.80
2023-03-16T20:07:22.914Z,60.40
2023-03-16T20:09:51.317Z,50.40
2023-03-16T20:12:27.463Z,33.50
2023-03-16T20:14:57.686Z,31.70
2023-03-16T20:17:28.777Z,24.60
2023-03-16T20:19:57.766Z,22.00
2023-03-16T20:22:28.750Z,25.50
2023-03-16T20:24:58.139Z,24.50
2023-03-16T20:27:27.906Z,30.40
2023-03-16T20:29:56.421Z,23.20
2023-03-16T20:32:33.584Z,32.20
2023-03-16T20:35:01.803Z,42.50
2023-03-16T20:37:31.404Z,42.10
2023-03-16T20:40:00.069Z,68.40
2023-03-16T20:42:34.654Z,38.60
2023-03-16T20:45:09.937Z,38.60
2023-03-16T20:47:39.294Z,38.70
2023-03-16T20:50:28.129Z,38.90
2023-03-16T20:52:56.938Z,50.00
2023-03-16T20:55:29.359Z,32.10
2023-03-16T20:57:58.717Z,35.40
2023-03-16T21:00:36.555Z,34.80
2023-03-16T21:03:17.025Z,39.00
2023-03-16T21:05:46.267Z,36.50
2023-03-16T21:08:15.902Z,36.50
2023-03-16T21:10:46.357Z,32.00
2023-03-16T21:13:21.339Z,34.20
2023-03-16T21:15:50.837Z,28.50
2023-03-16T21:18:21.605Z,55.20
2023-03-16T21:20:51.267Z,66.50
2023-03-16T21:23:21.707Z,56.00
2023-03-16T21:25:54.843Z,33.60
2023-03-16T21:28:26.064Z,34.50
2023-03-16T21:30:57.498Z,63.70
2023-03-16T21:33:25.629Z,39.50
2023-03-16T21:35:54.078Z,65.20
2023-03-16T21:38:24.420Z,46.20
2023-03-16T21:40:53.547Z,75.50
2023-03-16T21:43:22.421Z,73.80
2023-03-16T21:45:52.106Z,66.80
2023-03-16T21:48:25.437Z,66.70
2023-03-16T21:50:54.593Z,70.80
2023-03-16T21:53:28.817Z,57.50
2023-03-16T21:55:57.230Z,46.90
2023-03-16T21:58:25.504Z,62.80
2023-03-16T22:00:55.428Z,39.10
2023-03-16T22:03:35.125Z,39.00
2023-03-16T22:06:12.529Z,38.40
2023-03-16T22:08:42.832Z,37.90
2023-03-16T22:11:20.139Z,36.80
2023-03-16T22:13:52.344Z,43.60
2023-03-16T22:16:23.441Z,42.70
2023-03-16T22:18:56.429Z,53.10
2023-03-16T22:21:33.510Z,58.60
2023-03-16T22:24:05.522Z,57.20
2023-03-16T22:26:33.988Z,55.10
2023-03-16T22:29:02.168Z,36.00
2023-03-16T22:31:34.410Z,36.10
2023-03-16T22:34:03.757Z,33.70
2023-03-16T22:36:33.410Z,26.60
2023-03-16T22:39:09.700Z,21.90
2023-03-16T22:41:38.077Z,20.70
2023-03-16T22:44:11.902Z,20.60
2023-03-16T22:46:40.059Z,18.20
2023-03-16T22:49:19.689Z,36.30
2023-03-16T22:51:50.037Z,51.30
2023-03-16T22:54:21.485Z,49.50
2023-03-16T22:56:50.242Z,58.40
2023-03-16T22:59:22.536Z,42.90
2023-03-16T23:01:50.766Z,38.90
2023-03-16T23:04:32.422Z,30.10
2023-03-16T23:07:00.834Z,35.20
2023-03-16T23:09:29.886Z,27.80
2023-03-16T23:11:59.577Z,28.80
2023-03-16T23:14:30.695Z,30.60
2023-03-16T23:16:59.047Z,26.60
2023-03-16T23:19:33.974Z,24.40
2023-03-16T23:22:07.185Z,31.90
2023-03-16T23:24:36.537Z,31.90
2023-03-16T23:27:07.365Z,28.70
2023-03-16T23:29:35.848Z,31.70
2023-03-16T23:32:04.571Z,35.40
2023-03-16T23:34:32.697Z,27.80
2023-03-16T23:37:00.820Z,25.80
2023-03-16T23:39:29.219Z,24.40
2023-03-16T23:41:57.783Z,24.00
2023-03-16T23:44:29.002Z,24.40
2023-03-16T23:46:58.898Z,31.60
2023-03-16T23:49:32.973Z,32.10
2023-03-16T23:52:02.320Z,25.30
2023-03-16T23:54:32.195Z,21.30
2023-03-16T23:57:01.035Z,24.00
2023-03-16T23:59:29.305Z,18.60
